createdAt,value
2022-08-26T00:01:54.429Z,2.13
2022-08-26T00:04:25.892Z,2.27
2022-08-26T00:06:56.759Z,2.33
2022-08-26T00:09:25.208Z,1.92
2022-08-26T00:11:53.922Z,2.78
2022-08-26T00:14:27.031Z,2.45
2022-08-26T00:16:55.775Z,2.55
2022-08-26T00:19:23.042Z,2.67
2022-08-26T00:21:51.317Z,2.33
2022-08-26T00:24:20.419Z,2.63
2022-08-26T00:26:48.475Z,2.88
2022-08-26T00:29:15.946Z,2.40
2022-08-26T00:31:45.353Z,2.75
2022-08-26T00:34:14.172Z,2.20
2022-08-26T00:36:43.552Z,1.90
2022-08-26T00:39:11.378Z,2.92
2022-08-26T00:41:39.724Z,1.92
2022-08-26T00:44:07.995Z,3.08
2022-08-26T00:46:37.375Z,2.55
2022-08-26T00:49:11.902Z,2.75
2022-08-26T00:51:57.324Z,2.78
2022-08-26T00:54:27.551Z,2.55
2022-08-26T00:56:59.922Z,2.70
2022-08-26T00:59:29.315Z,2.85
2022-08-26T01:02:02.799Z,2.55
2022-08-26T01:04:32.416Z,2.88
2022-08-26T01:07:00.090Z,3.10
2022-08-26T01:09:27.616Z,3.92
2022-08-26T01:11:58.069Z,4.30
2022-08-26T01:16:52.404Z,4.40
2022-08-26T01:19:24.033Z,3.50
2022-08-26T01:22:19.920Z,3.38
2022-08-26T01:24:48.345Z,4.30
2022-08-26T01:27:18.942Z,5.18
2022-08-26T01:29:48.792Z,4.60
2022-08-26T01:32:22.467Z,3.65
2022-08-26T01:34:50.937Z,4.45
2022-08-26T01:37:22.984Z,5.00
2022-08-26T01:39:52.399Z,5.57
2022-08-26T01:42:21.616Z,4.13
2022-08-26T01:44:57.323Z,5.40
2022-08-26T01:47:26.160Z,6.15
2022-08-26T01:49:55.158Z,5.57
2022-08-26T01:52:28.185Z,5.32
2022-08-26T01:54:57.668Z,4.78
2022-08-26T01:57:25.497Z,5.65
2022-08-26T01:59:55.524Z,7.07
2022-08-26T02:02:23.007Z,6.80
2022-08-26T02:05:00.498Z,8.30
2022-08-26T02:07:28.115Z,7.65
2022-08-26T02:09:55.424Z,7.30
2022-08-26T02:12:22.823Z,6.97
2022-08-26T02:14:53.774Z,7.82
2022-08-26T02:17:27.922Z,6.90
2022-08-26T02:19:55.685Z,7.60
2022-08-26T02:22:24.582Z,8.40
2022-08-26T02:24:55.025Z,7.97
2022-08-26T02:27:25.644Z,7.57
2022-08-26T02:30:01.408Z,8.98
2022-08-26T02:32:28.770Z,8.77
2022-08-26T02:34:56.041Z,8.60
2022-08-26T02:37:23.509Z,8.65
2022-08-26T02:39:50.913Z,8.55
2022-08-26T02:42:19.393Z,8.25
2022-08-26T02:44:46.612Z,6.60
2022-08-26T02:47:14.474Z,9.80
2022-08-26T02:49:47.238Z,9.50
2022-08-26T02:52:15.201Z,10.77
2022-08-26T02:54:42.561Z,10.48
2022-08-26T02:57:11.314Z,9.25
2022-08-26T02:59:39.977Z,10.23
2022-08-26T03:02:07.559Z,10.80
2022-08-26T03:04:34.848Z,11.32
2022-08-26T03:07:02.611Z,8.82
2022-08-26T03:09:30.030Z,10.88
2022-08-26T03:11:58.150Z,9.43
2022-08-26T03:14:26.119Z,11.35
2022-08-26T03:16:54.394Z,11.40
2022-08-26T03:19:23.897Z,12.13
2022-08-26T03:21:52.915Z,11.77
2022-08-26T03:24:26.421Z,10.30
2022-08-26T03:26:53.689Z,11.10
2022-08-26T03:29:40.506Z,10.35
2022-08-26T03:32:08.680Z,10.38
2022-08-26T03:34:36.596Z,11.73
2022-08-26T03:37:03.967Z,10.45
2022-08-26T03:39:31.537Z,12.00
2022-08-26T03:41:59.127Z,11.85
2022-08-26T03:44:26.699Z,11.70
2022-08-26T03:46:54.545Z,11.38
2022-08-26T03:49:22.609Z,11.93
2022-08-26T03:51:50.230Z,12.30
2022-08-26T03:54:17.888Z,12.00
2022-08-26T03:56:46.419Z,13.00
2022-08-26T03:59:14.202Z,12.10
2022-08-26T04:01:41.781Z,13.95
2022-08-26T04:04:09.054Z,13.40
2022-08-26T04:06:44.729Z,13.40
2022-08-26T04:09:15.495Z,13.13
2022-08-26T04:11:44.180Z,15.13
2022-08-26T04:14:21.222Z,14.52
2022-08-26T04:16:52.453Z,14.07
2022-08-26T04:19:21.008Z,14.70
2022-08-26T04:21:51.951Z,13.05
2022-08-26T04:24:21.580Z,14.85
2022-08-26T04:26:49.060Z,14.70
2022-08-26T04:29:20.050Z,15.80
2022-08-26T04:31:55.261Z,15.13
2022-08-26T04:34:28.351Z,16.35
2022-08-26T04:36:57.693Z,15.27
2022-08-26T04:39:25.274Z,15.10
2022-08-26T04:41:55.108Z,14.30
2022-08-26T04:44:24.897Z,15.00
2022-08-26T04:46:52.943Z,15.80
2022-08-26T04:49:21.073Z,14.27
2022-08-26T04:51:48.914Z,16.30
2022-08-26T04:54:16.520Z,14.85
2022-08-26T04:56:45.356Z,15.23
2022-08-26T04:59:17.098Z,14.57
2022-08-26T05:01:51.346Z,14.43
2022-08-26T05:04:20.062Z,16.50
2022-08-26T05:06:48.535Z,15.07
2022-08-26T05:09:18.621Z,15.65
2022-08-26T05:11:48.578Z,17.05
2022-08-26T05:14:23.100Z,16.00
2022-08-26T05:16:51.258Z,16.50
2022-08-26T05:19:19.498Z,16.65
2022-08-26T05:21:48.521Z,15.10
2022-08-26T05:24:17.904Z,17.85
2022-08-26T05:26:46.986Z,17.42
2022-08-26T05:29:16.785Z,16.90
2022-08-26T05:31:44.167Z,16.27
2022-08-26T05:34:11.525Z,15.82
2022-08-26T05:36:39.158Z,16.92
2022-08-26T05:39:07.252Z,16.88
2022-08-26T05:41:38.302Z,19.52
2022-08-26T05:44:08.794Z,19.05
2022-08-26T05:49:05.763Z,18.55
2022-08-26T05:51:34.191Z,18.27
2022-08-26T05:54:02.804Z,18.33
2022-08-26T05:56:31.017Z,18.13
2022-08-26T05:58:59.854Z,17.27
2022-08-26T06:01:28.167Z,16.45
2022-08-26T06:04:00.714Z,17.55
2022-08-26T06:06:32.310Z,18.67
2022-08-26T06:09:01.248Z,18.58
2022-08-26T06:11:30.533Z,18.75
2022-08-26T06:14:03.783Z,18.93
2022-08-26T06:16:34.867Z,18.70
2022-08-26T06:19:03.734Z,20.38
2022-08-26T06:21:40.127Z,20.27
2022-08-26T06:24:29.527Z,20.67
2022-08-26T06:27:04.296Z,19.08
2022-08-26T06:29:33.619Z,17.13
2022-08-26T06:32:01.507Z,18.17
2022-08-26T06:34:30.537Z,17.85
2022-08-26T06:37:01.412Z,16.37
2022-08-26T06:39:31.090Z,17.15
2022-08-26T06:41:59.916Z,14.73
2022-08-26T06:44:27.717Z,16.45
2022-08-26T06:46:55.489Z,17.90
2022-08-26T06:49:26.839Z,17.15
2022-08-26T06:51:58.626Z,15.90
2022-08-26T06:54:27.677Z,15.55
2022-08-26T06:56:57.000Z,15.73
2022-08-26T06:59:25.224Z,14.63
2022-08-26T07:01:53.495Z,13.43
2022-08-26T07:04:23.155Z,13.90
2022-08-26T07:06:53.352Z,13.93
2022-08-26T07:09:26.700Z,13.88
2022-08-26T07:11:58.352Z,13.55
2022-08-26T07:14:26.403Z,13.68
2022-08-26T07:16:54.135Z,14.02
2022-08-26T07:19:29.950Z,13.70
2022-08-26T07:22:02.147Z,13.65
2022-08-26T07:24:35.087Z,13.07
2022-08-26T07:27:05.652Z,12.85
2022-08-26T07:29:34.015Z,13.90
2022-08-26T07:32:01.508Z,13.20
2022-08-26T07:34:28.898Z,14.15
2022-08-26T07:36:56.999Z,14.23
2022-08-26T07:39:25.280Z,13.32
2022-08-26T07:41:53.127Z,13.75
2022-08-26T07:44:21.016Z,15.18
2022-08-26T07:46:53.376Z,15.07
2022-08-26T07:49:22.849Z,13.30
2022-08-26T07:51:51.172Z,13.32
2022-08-26T07:54:18.907Z,12.38
2022-08-26T07:56:48.529Z,12.63
2022-08-26T07:59:17.550Z,10.45
2022-08-26T08:01:45.752Z,10.68
2022-08-26T08:04:18.432Z,12.07
2022-08-26T08:06:46.634Z,11.98
2022-08-26T08:09:16.102Z,11.25
2022-08-26T08:11:44.676Z,14.07
2022-08-26T08:14:12.724Z,12.93
2022-08-26T08:16:45.999Z,13.48
2022-08-26T08:19:15.408Z,13.07
2022-08-26T08:21:43.810Z,12.98
2022-08-26T08:24:11.279Z,15.68
2022-08-26T08:26:39.211Z,10.95
2022-08-26T08:29:08.779Z,11.32
2022-08-26T08:31:57.110Z,11.63
2022-08-26T08:34:24.625Z,12.38
2022-08-26T08:36:53.813Z,10.38
2022-08-26T08:39:22.317Z,9.18
2022-08-26T08:42:16.047Z,9.95
2022-08-26T08:44:52.097Z,9.75
2022-08-26T08:47:38.096Z,8.40
2022-08-26T08:50:35.563Z,8.55
2022-08-26T08:53:26.134Z,9.30
2022-08-26T08:56:02.586Z,9.20
2022-08-26T08:59:07.419Z,8.85
2022-08-26T09:01:42.544Z,8.98
2022-08-26T09:04:40.402Z,7.90
2022-08-26T09:07:14.359Z,8.52
2022-08-26T09:09:44.560Z,8.10
2022-08-26T09:12:20.723Z,10.18
2022-08-26T09:15:11.841Z,8.55
2022-08-26T09:18:46.104Z,7.93
2022-08-26T09:21:15.891Z,8.02
2022-08-26T09:23:54.977Z,8.07
2022-08-26T09:26:29.327Z,7.53
2022-08-26T09:29:04.932Z,7.30
2022-08-26T09:31:35.905Z,7.07
2022-08-26T09:34:12.277Z,6.60
2022-08-26T09:36:56.398Z,6.95
2022-08-26T09:39:37.732Z,6.72
2022-08-26T09:42:22.768Z,7.20
2022-08-26T09:45:00.286Z,9.55
2022-08-26T09:47:33.178Z,7.13
2022-08-26T09:50:12.533Z,7.07
2022-08-26T09:52:40.630Z,7.22
2022-08-26T09:57:49.609Z,6.38
2022-08-26T10:02:54.767Z,5.95
2022-08-26T10:05:44.607Z,6.85
2022-08-26T10:08:28.246Z,6.22
2022-08-26T10:10:58.359Z,6.80
2022-08-26T10:13:36.463Z,6.85
2022-08-26T10:16:17.864Z,14.23
2022-08-26T10:19:00.610Z,6.10
2022-08-26T10:21:32.987Z,6.07
2022-08-26T10:24:02.326Z,5.43
2022-08-26T10:26:38.459Z,6.90
2022-08-26T10:29:14.151Z,6.15
2022-08-26T10:31:49.041Z,6.07
2022-08-26T10:34:18.961Z,6.40
2022-08-26T10:37:15.877Z,6.07
2022-08-26T10:39:57.342Z,6.47
2022-08-26T10:42:35.342Z,5.93
2022-08-26T10:45:11.615Z,5.93
2022-08-26T10:47:46.101Z,9.13
2022-08-26T10:50:13.536Z,13.60
2022-08-26T10:52:55.369Z,11.88
2022-08-26T10:55:39.077Z,7.95
2022-08-26T10:58:29.695Z,6.65
2022-08-26T11:01:33.452Z,5.50
2022-08-26T11:04:04.065Z,7.25
2022-08-26T11:06:31.555Z,4.57
2022-08-26T11:09:01.529Z,5.10
2022-08-26T11:14:28.531Z,5.00
2022-08-26T11:16:58.694Z,4.80
2022-08-26T11:19:50.862Z,4.68
2022-08-26T11:22:25.865Z,5.30
2022-08-26T11:24:53.168Z,4.38
2022-08-26T11:27:23.205Z,5.55
2022-08-26T11:30:10.164Z,4.13
2022-08-26T11:32:38.903Z,3.28
2022-08-26T11:35:33.764Z,3.10
2022-08-26T11:38:14.621Z,3.00
2022-08-26T11:40:42.229Z,3.30
2022-08-26T11:43:21.818Z,3.20
2022-08-26T11:46:00.378Z,3.45
2022-08-26T11:48:33.361Z,3.67
2022-08-26T11:51:05.923Z,3.20
2022-08-26T11:53:37.168Z,3.60
2022-08-26T11:56:08.928Z,3.63
2022-08-26T11:58:36.672Z,3.40
2022-08-26T12:01:09.592Z,2.72
2022-08-26T12:03:47.680Z,2.65
2022-08-26T12:06:23.022Z,2.40
2022-08-26T12:08:52.370Z,3.17
2022-08-26T12:11:28.609Z,3.30
2022-08-26T12:13:59.212Z,3.70
2022-08-26T12:16:38.370Z,3.13
2022-08-26T12:19:32.720Z,2.70
2022-08-26T12:22:23.812Z,3.17
2022-08-26T12:25:00.296Z,2.92
2022-08-26T12:27:30.811Z,4.30
2022-08-26T12:30:08.388Z,3.05
2022-08-26T12:32:39.088Z,2.95
2022-08-26T12:35:25.755Z,2.50
2022-08-26T12:37:54.073Z,2.90
2022-08-26T12:40:45.842Z,2.33
2022-08-26T12:43:17.203Z,2.63
2022-08-26T12:46:06.744Z,2.53
2022-08-26T12:48:37.395Z,2.53
2022-08-26T12:51:08.389Z,2.60
2022-08-26T12:53:42.101Z,3.17
2022-08-26T12:56:35.162Z,3.67
2022-08-26T12:59:26.234Z,2.50
2022-08-26T13:01:54.470Z,2.58
2022-08-26T13:04:41.052Z,2.63
2022-08-26T13:07:26.409Z,2.72
2022-08-26T13:09:55.930Z,2.63
2022-08-26T13:12:31.431Z,2.90
2022-08-26T13:15:00.126Z,3.50
2022-08-26T13:17:28.487Z,3.30
2022-08-26T13:19:59.008Z,4.55
2022-08-26T13:22:30.333Z,2.67
2022-08-26T13:24:57.955Z,2.80
2022-08-26T13:27:27.246Z,2.47
2022-08-26T13:29:55.092Z,2.63
2022-08-26T13:32:26.867Z,4.20
2022-08-26T13:34:56.554Z,2.53
2022-08-26T13:37:24.317Z,2.45
2022-08-26T13:40:05.421Z,2.58
2022-08-26T13:42:32.882Z,2.20
2022-08-26T13:45:02.369Z,2.47
2022-08-26T13:47:29.709Z,2.40
2022-08-26T13:49:57.128Z,2.17
2022-08-26T13:52:25.513Z,2.10
2022-08-26T13:55:00.512Z,2.13
2022-08-26T13:57:30.142Z,2.40
2022-08-26T13:59:59.387Z,2.65
2022-08-26T14:02:27.855Z,2.40
2022-08-26T14:04:55.962Z,5.45
2022-08-26T14:07:23.637Z,2.50
2022-08-26T14:09:50.900Z,2.05
2022-08-26T14:12:18.270Z,2.00
2022-08-26T14:14:45.622Z,2.00
2022-08-26T14:17:17.463Z,1.85
2022-08-26T14:19:48.182Z,2.10
2022-08-26T14:22:17.360Z,2.03
2022-08-26T14:24:45.253Z,2.27
2022-08-26T14:27:13.312Z,2.20
2022-08-26T14:29:41.146Z,2.20
2022-08-26T14:32:12.952Z,1.90
2022-08-26T14:34:41.550Z,2.15
2022-08-26T14:37:11.476Z,1.98
2022-08-26T14:39:41.106Z,1.90
2022-08-26T14:42:10.086Z,1.92
2022-08-26T14:44:38.132Z,2.17
2022-08-26T14:47:06.658Z,2.30
2022-08-26T14:49:34.072Z,2.20
2022-08-26T14:52:01.741Z,1.92
2022-08-26T14:54:29.572Z,2.20
2022-08-26T14:57:00.819Z,1.95
2022-08-26T14:59:31.046Z,1.83
2022-08-26T15:01:58.696Z,1.90
2022-08-26T15:04:26.489Z,1.98
2022-08-26T15:06:55.239Z,2.30
2022-08-26T15:09:23.338Z,2.00
2022-08-26T15:11:51.165Z,1.80
2022-08-26T15:14:20.108Z,2.00
2022-08-26T15:16:53.859Z,2.15
2022-08-26T15:19:22.088Z,1.75
2022-08-26T15:21:49.891Z,1.75
2022-08-26T15:24:19.576Z,2.13
2022-08-26T15:26:47.293Z,1.90
2022-08-26T15:29:15.014Z,1.95
2022-08-26T15:31:43.048Z,2.03
2022-08-26T15:34:16.000Z,1.77
2022-08-26T15:36:45.931Z,1.80
2022-08-26T15:39:14.842Z,1.90
2022-08-26T15:41:42.140Z,1.80
2022-08-26T15:44:10.205Z,1.80
2022-08-26T15:46:38.716Z,1.80
2022-08-26T15:49:06.657Z,2.00
2022-08-26T15:51:46.062Z,2.30
2022-08-26T15:54:14.607Z,2.08
2022-08-26T15:56:43.432Z,1.90
2022-08-26T15:59:11.932Z,2.13
2022-08-26T16:01:39.776Z,2.00
2022-08-26T16:04:07.448Z,2.10
2022-08-26T16:06:36.845Z,2.22
2022-08-26T16:09:05.631Z,2.15
2022-08-26T16:11:34.537Z,1.85
2022-08-26T16:14:02.499Z,2.20
2022-08-26T16:16:29.858Z,2.20
2022-08-26T16:18:57.199Z,2.05
2022-08-26T16:21:27.908Z,1.98
2022-08-26T16:23:56.184Z,2.03
2022-08-26T16:26:28.920Z,2.13
2022-08-26T16:28:56.263Z,1.98
2022-08-26T16:31:23.691Z,1.80
2022-08-26T16:33:51.452Z,2.00
2022-08-26T16:36:19.841Z,1.90
2022-08-26T16:38:53.443Z,1.90
2022-08-26T16:41:21.261Z,1.90
2022-08-26T16:43:48.823Z,2.08
2022-08-26T16:46:16.323Z,1.88
2022-08-26T16:48:44.070Z,1.65
2022-08-26T16:51:17.361Z,1.98
2022-08-26T16:53:45.723Z,2.10
2022-08-26T16:56:17.885Z,1.80
2022-08-26T16:58:45.208Z,2.00
2022-08-26T17:01:12.531Z,1.95
2022-08-26T17:03:40.017Z,1.90
2022-08-26T17:06:07.655Z,1.90
2022-08-26T17:08:37.058Z,1.70
2022-08-26T17:11:06.259Z,1.90
2022-08-26T17:13:35.197Z,1.70
2022-08-26T17:16:04.957Z,1.83
2022-08-26T17:18:33.466Z,1.90
2022-08-26T17:21:07.996Z,1.73
2022-08-26T17:23:36.260Z,1.60
2022-08-26T17:26:03.586Z,1.85
2022-08-26T17:28:30.873Z,1.48
2022-08-26T17:30:58.731Z,1.83
2022-08-26T17:33:26.348Z,1.70
2022-08-26T17:35:53.698Z,2.08
2022-08-26T17:38:21.385Z,1.90
2022-08-26T17:40:49.614Z,1.65
2022-08-26T17:43:17.461Z,1.98
2022-08-26T17:45:44.830Z,2.17
2022-08-26T17:48:12.274Z,1.83
2022-08-26T17:50:41.575Z,1.77
2022-08-26T17:53:12.732Z,3.13
2022-08-26T17:55:47.687Z,1.75
2022-08-26T17:58:20.264Z,1.90
2022-08-26T18:00:52.284Z,2.20
2022-08-26T18:03:19.727Z,1.85
2022-08-26T18:05:48.353Z,2.13
2022-08-26T18:08:15.696Z,2.15
2022-08-26T18:10:44.096Z,2.53
2022-08-26T18:13:11.616Z,2.17
2022-08-26T18:15:40.067Z,1.67
2022-08-26T18:18:07.753Z,1.80
2022-08-26T18:20:35.196Z,1.90
2022-08-26T18:23:02.387Z,1.90
2022-08-26T18:25:29.759Z,1.90
2022-08-26T18:27:56.996Z,1.90
2022-08-26T18:30:24.630Z,2.10
2022-08-26T18:32:52.530Z,2.35
2022-08-26T18:35:21.455Z,2.15
2022-08-26T18:37:48.839Z,1.80
2022-08-26T18:40:16.426Z,2.10
2022-08-26T18:42:43.996Z,1.90
2022-08-26T18:45:15.969Z,2.42
2022-08-26T18:47:43.987Z,1.80
2022-08-26T18:50:11.827Z,1.60
2022-08-26T18:52:39.662Z,2.00
2022-08-26T18:55:07.756Z,1.90
2022-08-26T18:57:35.035Z,2.10
2022-08-26T19:00:05.042Z,1.90
2022-08-26T19:05:00.241Z,2.17
2022-08-26T19:07:27.532Z,1.90
2022-08-26T19:09:54.851Z,1.85
2022-08-26T19:12:22.609Z,2.03
2022-08-26T19:14:54.156Z,2.00
2022-08-26T19:17:22.569Z,2.10
2022-08-26T19:19:50.104Z,1.80
2022-08-26T19:22:17.360Z,1.80
2022-08-26T19:24:44.635Z,2.03
2022-08-26T19:27:14.851Z,1.85
2022-08-26T19:29:42.409Z,1.67
2022-08-26T19:32:09.675Z,1.70
2022-08-26T19:34:37.068Z,2.10
2022-08-26T19:37:04.723Z,2.67
2022-08-26T19:39:32.001Z,2.20
2022-08-26T19:42:00.347Z,1.83
2022-08-26T19:44:45.936Z,2.00
2022-08-26T19:47:14.022Z,2.42
2022-08-26T19:49:41.311Z,2.10
2022-08-26T19:52:08.861Z,1.90
2022-08-26T19:54:36.359Z,2.67
2022-08-26T19:57:04.947Z,2.38
2022-08-26T19:59:33.091Z,2.42
2022-08-26T20:02:01.671Z,2.30
2022-08-26T20:04:30.966Z,2.05
2022-08-26T20:07:00.615Z,2.10
2022-08-26T20:09:29.524Z,2.30
2022-08-26T20:11:57.058Z,2.22
2022-08-26T20:14:25.705Z,1.90
2022-08-26T20:16:53.262Z,2.08
2022-08-26T20:19:39.213Z,2.00
2022-08-26T20:22:06.726Z,2.20
2022-08-26T20:24:35.583Z,2.33
2022-08-26T20:27:07.528Z,1.98
2022-08-26T20:29:36.089Z,2.55
2022-08-26T20:32:05.994Z,2.00
2022-08-26T20:37:01.174Z,2.28
2022-08-26T20:39:29.690Z,2.30
2022-08-26T20:41:57.809Z,2.22
2022-08-26T20:44:25.387Z,2.10
2022-08-26T20:46:52.880Z,2.25
2022-08-26T20:49:20.157Z,1.95
2022-08-26T20:51:51.433Z,2.22
2022-08-26T20:54:21.020Z,2.17
2022-08-26T20:56:50.621Z,2.38
2022-08-26T20:59:18.722Z,2.05
2022-08-26T21:01:46.441Z,2.78
2022-08-26T21:04:16.404Z,2.10
2022-08-26T21:06:49.010Z,2.10
2022-08-26T21:09:22.278Z,2.00
2022-08-26T21:11:50.423Z,2.20
2022-08-26T21:14:18.784Z,2.28
2022-08-26T21:16:46.957Z,1.95
2022-08-26T21:19:15.912Z,2.10
2022-08-26T21:21:44.521Z,2.35
2022-08-26T21:24:12.732Z,2.13
2022-08-26T21:26:40.302Z,2.20
2022-08-26T21:29:09.945Z,1.98
2022-08-26T21:31:42.177Z,1.98
2022-08-26T21:34:17.186Z,1.85
2022-08-26T21:36:45.892Z,2.55
2022-08-26T21:39:13.940Z,2.40
2022-08-26T21:41:42.684Z,2.42
2022-08-26T21:44:10.722Z,1.98
2022-08-26T21:46:38.110Z,2.13
2022-08-26T21:49:08.205Z,2.13
2022-08-26T21:54:10.577Z,2.30
2022-08-26T21:56:44.239Z,2.50
2022-08-26T21:59:12.508Z,2.28
2022-08-26T22:01:39.831Z,2.00
2022-08-26T22:04:08.626Z,2.28
2022-08-26T22:06:42.202Z,2.25
2022-08-26T22:09:10.415Z,2.45
2022-08-26T22:11:37.742Z,2.28
2022-08-26T22:14:05.508Z,2.50
2022-08-26T22:16:32.910Z,2.10
2022-08-26T22:19:00.749Z,2.00
2022-08-26T22:21:28.507Z,2.20
2022-08-26T22:23:58.186Z,1.95
2022-08-26T22:26:29.083Z,1.70
2022-08-26T22:28:59.038Z,2.10
2022-08-26T22:34:08.833Z,2.05
2022-08-26T22:36:42.655Z,2.00
2022-08-26T22:39:14.548Z,2.25
2022-08-26T22:41:43.122Z,2.03
2022-08-26T22:44:11.704Z,2.40
2022-08-26T22:46:39.924Z,2.00
2022-08-26T22:49:09.843Z,1.80
2022-08-26T22:51:37.139Z,1.92
2022-08-26T22:54:04.974Z,2.13
2022-08-26T22:56:32.341Z,1.90
2022-08-26T22:58:59.700Z,2.20
2022-08-26T23:01:27.149Z,2.15
2022-08-26T23:03:54.478Z,2.25
2022-08-26T23:06:21.854Z,2.10
2022-08-26T23:08:49.390Z,1.88
2022-08-26T23:11:17.519Z,1.95
2022-08-26T23:13:44.805Z,2.15
2022-08-26T23:16:12.975Z,2.22
2022-08-26T23:18:41.350Z,1.85
2022-08-26T23:21:09.271Z,2.00
2022-08-26T23:23:38.380Z,1.80
2022-08-26T23:26:08.057Z,1.98
2022-08-26T23:28:36.934Z,1.90
2022-08-26T23:31:04.752Z,1.98
2022-08-26T23:33:50.420Z,2.05
2022-08-26T23:36:18.416Z,1.38
2022-08-26T23:38:52.835Z,1.70
2022-08-26T23:41:24.431Z,1.80
2022-08-26T23:43:51.788Z,1.88
2022-08-26T23:46:19.750Z,1.80
2022-08-26T23:48:47.365Z,1.80
2022-08-26T23:51:33.523Z,2.13
2022-08-26T23:54:00.979Z,1.70
2022-08-26T23:56:29.130Z,2.13
2022-08-26T23:58:56.792Z,1.80
